Goodman, Mississippi
Current Conditions -  °F | °C
As of 9:53 PM on Saturday 24 Jan 2015 (Local Time) from KGWO Reporting Station
Clear Clear  
Wind Chill: 37°   Ceiling: Unl
Heat Index: 42°   Visibility: 10mi
Dew Point: 35°   Wind: 9mph
Humidity: 76%   Direction: 210°SSW
Pressure: 29.99"   Gusts: NA
Location:  32.97°N, 89.91°W
Report Text: KGWO 250353Z AUTO 21008KT 10SM CLR 06/02 A2999 RMK AO2 SLP155 T00560017
Loading
Personal Weather Stations






























Interactive Weather Map New forecast layout! Learn more

10-Day Weather Forecast

Advertisements
Track Severe Weather on mobile